sensor_id;sensor_type;location;lat;lon;timestamp;P1;durP1;ratioP1;P2;durP2;ratioP2
35757;SDS011;21879;50.110;18.900;2024-01-15T00:09:51;5.70;;;3.90;;
35757;SDS011;21879;50.110;18.900;2024-01-15T00:20:19;5.70;;;3.80;;
35757;SDS011;21879;50.110;18.900;2024-01-15T00:30:47;6.60;;;3.90;;
35757;SDS011;21879;50.110;18.900;2024-01-15T00:41:15;5.40;;;3.50;;
35757;SDS011;21879;50.110;18.900;2024-01-15T00:51:43;4.10;;;2.70;;
35757;SDS011;21879;50.110;18.900;2024-01-15T01:02:11;5.80;;;3.70;;
35757;SDS011;21879;50.110;18.900;2024-01-15T01:12:39;4.70;;;3.30;;
35757;SDS011;21879;50.110;18.900;2024-01-15T01:23:07;4.30;;;2.90;;
35757;SDS011;21879;50.110;18.900;2024-01-15T01:33:34;4.20;;;2.90;;
35757;SDS011;21879;50.110;18.900;2024-01-15T01:44:04;5.00;;;3.50;;
35757;SDS011;21879;50.110;18.900;2024-01-15T01:54:32;3.10;;;2.40;;
35757;SDS011;21879;50.110;18.900;2024-01-15T02:05:01;3.60;;;2.40;;
35757;SDS011;21879;50.110;18.900;2024-01-15T02:15:31;4.10;;;2.50;;
35757;SDS011;21879;50.110;18.900;2024-01-15T02:26:00;4.90;;;2.60;;
35757;SDS011;21879;50.110;18.900;2024-01-15T02:36:29;3.70;;;2.30;;
35757;SDS011;21879;50.110;18.900;2024-01-15T02:46:56;3.50;;;2.10;;
35757;SDS011;21879;50.110;18.900;2024-01-15T02:57:24;3.40;;;2.40;;
35757;SDS011;21879;50.110;18.900;2024-01-15T03:07:52;3.30;;;2.30;;
35757;SDS011;21879;50.110;18.900;2024-01-15T03:18:20;5.10;;;2.80;;
35757;SDS011;21879;50.110;18.900;2024-01-15T03:28:48;3.40;;;2.40;;
35757;SDS011;21879;50.110;18.900;2024-01-15T03:39:16;3.50;;;2.20;;
35757;SDS011;21879;50.110;18.900;2024-01-15T03:49:44;4.30;;;2.10;;
35757;SDS011;21879;50.110;18.900;2024-01-15T04:00:13;3.20;;;2.20;;
35757;SDS011;21879;50.110;18.900;2024-01-15T04:10:42;2.60;;;1.70;;
35757;SDS011;21879;50.110;18.900;2024-01-15T04:21:10;2.90;;;1.60;;
35757;SDS011;21879;50.110;18.900;2024-01-15T04:31:38;2.50;;;1.60;;
35757;SDS011;21879;50.110;18.900;2024-01-15T04:42:06;3.40;;;2.00;;
35757;SDS011;21879;50.110;18.900;2024-01-15T04:52:34;2.40;;;1.50;;
35757;SDS011;21879;50.110;18.900;2024-01-15T05:03:01;2.40;;;1.50;;
35757;SDS011;21879;50.110;18.900;2024-01-15T05:13:30;1.80;;;1.40;;
35757;SDS011;21879;50.110;18.900;2024-01-15T05:23:57;2.50;;;1.20;;
35757;SDS011;21879;50.110;18.900;2024-01-15T05:34:25;2.10;;;1.80;;
35757;SDS011;21879;50.110;18.900;2024-01-15T05:44:53;1.70;;;1.10;;
35757;SDS011;21879;50.110;18.900;2024-01-15T05:55:21;1.50;;;1.30;;
35757;SDS011;21879;50.110;18.900;2024-01-15T06:05:49;1.60;;;1.30;;
35757;SDS011;21879;50.110;18.900;2024-01-15T06:16:17;3.30;;;1.50;;
35757;SDS011;21879;50.110;18.900;2024-01-15T06:26:47;1.80;;;1.30;;
35757;SDS011;21879;50.110;18.900;2024-01-15T06:37:15;2.40;;;1.40;;
35757;SDS011;21879;50.110;18.900;2024-01-15T06:47:43;2.80;;;1.70;;
35757;SDS011;21879;50.110;18.900;2024-01-15T06:58:11;2.00;;;1.30;;
35757;SDS011;21879;50.110;18.900;2024-01-15T07:08:39;4.10;;;1.90;;
35757;SDS011;21879;50.110;18.900;2024-01-15T07:19:07;3.10;;;1.80;;
35757;SDS011;21879;50.110;18.900;2024-01-15T07:29:35;5.50;;;2.20;;
35757;SDS011;21879;50.110;18.900;2024-01-15T07:40:04;3.50;;;1.80;;
35757;SDS011;21879;50.110;18.900;2024-01-15T07:50:33;2.50;;;1.30;;
35757;SDS011;21879;50.110;18.900;2024-01-15T08:01:15;1.80;;;1.20;;
35757;SDS011;21879;50.110;18.900;2024-01-15T08:11:43;3.50;;;1.50;;
35757;SDS011;21879;50.110;18.900;2024-01-15T08:22:10;3.40;;;2.10;;
35757;SDS011;21879;50.110;18.900;2024-01-15T08:32:38;5.40;;;3.30;;
35757;SDS011;21879;50.110;18.900;2024-01-15T08:43:07;4.30;;;2.80;;
35757;SDS011;21879;50.110;18.900;2024-01-15T08:53:35;4.00;;;3.10;;
35757;SDS011;21879;50.110;18.900;2024-01-15T09:04:03;6.00;;;3.20;;
35757;SDS011;21879;50.110;18.900;2024-01-15T09:14:31;7.00;;;4.50;;
35757;SDS011;21879;50.110;18.900;2024-01-15T09:25:01;5.70;;;3.70;;
35757;SDS011;21879;50.110;18.900;2024-01-15T09:35:29;4.80;;;3.80;;
35757;SDS011;21879;50.110;18.900;2024-01-15T09:45:56;5.80;;;4.10;;
35757;SDS011;21879;50.110;18.900;2024-01-15T09:56:24;7.50;;;6.50;;
35757;SDS011;21879;50.110;18.900;2024-01-15T10:06:52;8.20;;;6.00;;
35757;SDS011;21879;50.110;18.900;2024-01-15T10:17:22;9.70;;;5.00;;
35757;SDS011;21879;50.110;18.900;2024-01-15T10:27:59;7.20;;;3.70;;
35757;SDS011;21879;50.110;18.900;2024-01-15T10:48:54;7.50;;;4.30;;
35757;SDS011;21879;50.110;18.900;2024-01-15T10:59:22;6.40;;;3.30;;
35757;SDS011;21879;50.110;18.900;2024-01-15T11:09:51;5.90;;;3.40;;
35757;SDS011;21879;50.110;18.900;2024-01-15T11:20:18;6.90;;;3.70;;
35757;SDS011;21879;50.110;18.900;2024-01-15T11:30:46;6.20;;;3.50;;
35757;SDS011;21879;50.110;18.900;2024-01-15T11:41:15;4.90;;;3.20;;
35757;SDS011;21879;50.110;18.900;2024-01-15T11:51:43;3.20;;;2.60;;
35757;SDS011;21879;50.110;18.900;2024-01-15T12:02:11;6.60;;;4.70;;
35757;SDS011;21879;50.110;18.900;2024-01-15T12:12:42;8.40;;;5.30;;
35757;SDS011;21879;50.110;18.900;2024-01-15T12:23:25;8.40;;;4.30;;
35757;SDS011;21879;50.110;18.900;2024-01-15T12:33:53;6.50;;;4.40;;
35757;SDS011;21879;50.110;18.900;2024-01-15T12:44:22;6.90;;;3.90;;
35757;SDS011;21879;50.110;18.900;2024-01-15T12:54:51;4.80;;;3.50;;
35757;SDS011;21879;50.110;18.900;2024-01-15T13:05:19;5.50;;;3.10;;
35757;SDS011;21879;50.110;18.900;2024-01-15T13:15:49;5.40;;;3.70;;
35757;SDS011;21879;50.110;18.900;2024-01-15T13:26:17;6.00;;;4.50;;
35757;SDS011;21879;50.110;18.900;2024-01-15T13:36:45;8.20;;;4.90;;
35757;SDS011;21879;50.110;18.900;2024-01-15T13:47:15;7.60;;;4.70;;
35757;SDS011;21879;50.110;18.900;2024-01-15T13:57:42;9.10;;;5.40;;
35757;SDS011;21879;50.110;18.900;2024-01-15T14:08:10;7.10;;;5.00;;
35757;SDS011;21879;50.110;18.900;2024-01-15T14:18:39;7.70;;;4.50;;
35757;SDS011;21879;50.110;18.900;2024-01-15T14:29:07;7.80;;;4.80;;
35757;SDS011;21879;50.110;18.900;2024-01-15T14:39:35;7.50;;;5.30;;
35757;SDS011;21879;50.110;18.900;2024-01-15T14:50:04;9.20;;;6.00;;
35757;SDS011;21879;50.110;18.900;2024-01-15T15:00:34;9.60;;;5.50;;
35757;SDS011;21879;50.110;18.900;2024-01-15T15:11:03;8.10;;;5.10;;
35757;SDS011;21879;50.110;18.900;2024-01-15T15:21:31;12.10;;;7.60;;
35757;SDS011;21879;50.110;18.900;2024-01-15T15:31:59;9.50;;;6.60;;
35757;SDS011;21879;50.110;18.900;2024-01-15T15:42:27;9.00;;;5.90;;
35757;SDS011;21879;50.110;18.900;2024-01-15T15:52:55;9.10;;;7.30;;
35757;SDS011;21879;50.110;18.900;2024-01-15T16:03:24;10.60;;;7.20;;
35757;SDS011;21879;50.110;18.900;2024-01-15T16:13:52;8.10;;;6.00;;
35757;SDS011;21879;50.110;18.900;2024-01-15T16:24:20;9.70;;;6.70;;
35757;SDS011;21879;50.110;18.900;2024-01-15T16:35:06;6.30;;;5.50;;
35757;SDS011;21879;50.110;18.900;2024-01-15T16:45:34;8.40;;;5.50;;
35757;SDS011;21879;50.110;18.900;2024-01-15T16:56:02;9.00;;;5.50;;
35757;SDS011;21879;50.110;18.900;2024-01-15T17:06:31;8.20;;;6.50;;
35757;SDS011;21879;50.110;18.900;2024-01-15T17:16:58;9.10;;;6.20;;
35757;SDS011;21879;50.110;18.900;2024-01-15T17:27:26;8.10;;;5.60;;
35757;SDS011;21879;50.110;18.900;2024-01-15T17:37:54;9.60;;;5.80;;
35757;SDS011;21879;50.110;18.900;2024-01-15T17:48:22;8.60;;;5.00;;
35757;SDS011;21879;50.110;18.900;2024-01-15T17:58:50;7.60;;;5.30;;
35757;SDS011;21879;50.110;18.900;2024-01-15T18:09:18;7.40;;;4.50;;
35757;SDS011;21879;50.110;18.900;2024-01-15T18:19:46;7.50;;;4.60;;
35757;SDS011;21879;50.110;18.900;2024-01-15T18:30:14;7.80;;;4.20;;
35757;SDS011;21879;50.110;18.900;2024-01-15T18:40:42;7.30;;;5.30;;
35757;SDS011;21879;50.110;18.900;2024-01-15T18:51:18;7.40;;;4.70;;
35757;SDS011;21879;50.110;18.900;2024-01-15T19:01:46;5.80;;;3.80;;
35757;SDS011;21879;50.110;18.900;2024-01-15T19:12:15;5.50;;;3.70;;
35757;SDS011;21879;50.110;18.900;2024-01-15T19:22:42;10.40;;;5.00;;
35757;SDS011;21879;50.110;18.900;2024-01-15T19:33:10;9.10;;;5.60;;
35757;SDS011;21879;50.110;18.900;2024-01-15T19:43:38;8.60;;;5.00;;
35757;SDS011;21879;50.110;18.900;2024-01-15T19:54:06;6.60;;;4.00;;
35757;SDS011;21879;50.110;18.900;2024-01-15T20:04:33;6.70;;;3.70;;
35757;SDS011;21879;50.110;18.900;2024-01-15T20:15:01;4.80;;;4.00;;
35757;SDS011;21879;50.110;18.900;2024-01-15T20:25:29;7.10;;;4.60;;
35757;SDS011;21879;50.110;18.900;2024-01-15T20:35:58;6.10;;;4.10;;
35757;SDS011;21879;50.110;18.900;2024-01-15T20:46:27;6.70;;;4.80;;
35757;SDS011;21879;50.110;18.900;2024-01-15T20:56:54;7.90;;;4.60;;
35757;SDS011;21879;50.110;18.900;2024-01-15T21:07:25;6.70;;;4.60;;
35757;SDS011;21879;50.110;18.900;2024-01-15T21:17:53;5.90;;;3.90;;
35757;SDS011;21879;50.110;18.900;2024-01-15T21:28:21;6.40;;;3.70;;
35757;SDS011;21879;50.110;18.900;2024-01-15T21:38:49;6.00;;;4.20;;
35757;SDS011;21879;50.110;18.900;2024-01-15T21:49:17;5.40;;;3.90;;
35757;SDS011;21879;50.110;18.900;2024-01-15T21:59:45;5.30;;;3.30;;
35757;SDS011;21879;50.110;18.900;2024-01-15T22:10:13;11.10;;;7.20;;
35757;SDS011;21879;50.110;18.900;2024-01-15T22:20:40;18.00;;;14.30;;
35757;SDS011;21879;50.110;18.900;2024-01-15T22:31:08;15.00;;;12.50;;
35757;SDS011;21879;50.110;18.900;2024-01-15T22:41:36;17.90;;;14.70;;
35757;SDS011;21879;50.110;18.900;2024-01-15T22:52:04;13.40;;;11.30;;
35757;SDS011;21879;50.110;18.900;2024-01-15T23:02:33;11.50;;;9.00;;
35757;SDS011;21879;50.110;18.900;2024-01-15T23:13:01;10.70;;;8.40;;
35757;SDS011;21879;50.110;18.900;2024-01-15T23:23:29;15.70;;;13.40;;
35757;SDS011;21879;50.110;18.900;2024-01-15T23:33:57;21.20;;;19.20;;
35757;SDS011;21879;50.110;18.900;2024-01-15T23:44:25;19.50;;;17.40;;
35757;SDS011;21879;50.110;18.900;2024-01-15T23:55:07;14.20;;;12.80;;
